KCUB Airport Information

Runway Information
Runway 13 Length 5002 ft width 75 ft
Elevation 193 ft Threshold 0 ft Heading 127
Runway 31 Length 5002 ft Width 75 ft
Elevation 179 ft Threshold 399 ft Heading 307
Airport Frequencies
Type A/D Name APP/DEP Frequency 133.4 MHZ
Type ASOS Name ASOS Frequency 119.675 MHZ
Type CLD Name CLNC DEL Frequency 124.4 MHZ
Type OPS Name MIL OPS Frequency 122.8 MHZ
Type RDO Name ANDERSON R Frequency 114.7 MHZ
Type UNIC Name CTAF/UNICO Frequency 122.8 MHZ
Airport Navaids
Airport Weather Information & NOTAM
ADDS - METARS form results

(1134 UTC 21 September 2018)
Data provider http://aviationweather.gov/metar/data/
 
METAR text: KCUB 211120Z AUTO 00000KT 2 1/2SM BR CLR 22/21 A3020 RMK AO2 T02220211
Conditions at: KCUB (COLUMBIA-OWENS , SC, US) observed 1120 UTC 21 September 2018
Temperature: 22.2°C (72°F)
Dewpoint: 21.1°C (70°F) [RH = 93%]
Pressure (altimeter): 30.20 inches Hg (1022.8 mb)
Winds: calm
Visibility: 2.50 miles (4.02 km)
Ceiling: at least 12,000 feet AGL
Clouds: sky clear below 12,000 feet AGL
Weather: BR  (mist)

METAR text: KCUB 211053Z AUTO 05003KT 3SM BR CLR 22/21 A3020 RMK AO2 SLP223 T02220211
Conditions at: KCUB (COLUMBIA-OWENS , SC, US) observed 1053 UTC 21 September 2018
Temperature: 22.2°C (72°F)
Dewpoint: 21.1°C (70°F) [RH = 93%]
Pressure (altimeter): 30.20 inches Hg (1022.8 mb)
[Sea-level pressure: 1022.3 mb]
Winds: from the NE (50 degrees) at 3 MPH (3 knots; 1.5 m/s)
Visibility: 3 miles ( 5 km)
Ceiling: at least 12,000 feet AGL
Clouds: sky clear below 12,000 feet AGL
Weather: BR  (mist)

Forecast for: KCUB (COLUMBIA-OWENS , SC, US)
Text: KCUB 210829Z 2108/2206 VRB03KT 5SM BR SCT008
Forecast period: 0800 to 1300 UTC 21 September 2018
Forecast type: FROM: standard forecast or significant change
Winds: variable direction winds at 3 MPH (3 knots; 1.5 m/s)
Visibility: 5 miles (8 km)
Ceiling: at least 12,000 feet AGL
Clouds: scattered clouds at 800 feet AGL
Weather: BR  (mist)
Text: TEMPO 2110/2112 2SM BR SCT004
Forecast period: 1000 to 1200 UTC 21 September 2018
Forecast type: TEMPORARY: The following changes expected for less than half the time period
Visibility: 2.00 miles (3.22 km)
Ceiling: at least 12,000 feet AGL
Clouds: scattered clouds at 400 feet AGL
Weather: BR  (mist)
Text: FM211300 10005KT P6SM SCT050
Forecast period: 1300 to 2300 UTC 21 September 2018
Forecast type: FROM: standard forecast or significant change
Winds: from the E (100 degrees) at 6 MPH (5 knots; 2.6 m/s)
Visibility: 6 or more miles 10+ km)
Ceiling: at least 12,000 feet AGL
Clouds: scattered clouds at 5000 feet AGL
Weather: no significant weather forecast for this period
Text: FM212300 VRB03KT P6SM SKC
Forecast period: 2300 UTC 21 September 2018 to 0600 UTC 22 September 2018
Forecast type: FROM: standard forecast or significant change
Winds: variable direction winds at 3 MPH (3 knots; 1.5 m/s)
Visibility: 6 or more miles 10+ km)
Clouds: clear skies
Weather: no significant weather forecast for this period